createdAt,value
2017-06-24T00:03:21.064Z,20.99
2017-06-24T00:04:01.935Z,20.97
2017-06-24T00:04:42.824Z,20.97
2017-06-24T00:05:23.720Z,20.9
2017-06-24T00:06:04.602Z,20.87
2017-06-24T00:06:45.515Z,20.96
2017-06-24T00:07:26.414Z,21.02
2017-06-24T00:08:07.310Z,21
2017-06-24T00:08:48.213Z,20.95
2017-06-24T00:09:29.096Z,21.03
2017-06-24T00:10:09.988Z,21.02
2017-06-24T00:10:50.879Z,21
2017-06-24T00:11:31.762Z,21.06
2017-06-24T00:12:12.696Z,20.97
2017-06-24T00:12:53.593Z,20.96
2017-06-24T00:14:21.673Z,20.87
2017-06-24T00:15:02.578Z,20.92
2017-06-24T00:15:43.462Z,21.02
2017-06-24T00:16:24.351Z,21.03
2017-06-24T00:17:05.251Z,20.93
2017-06-24T00:17:46.133Z,20.82
2017-06-24T00:18:27.052Z,20.78
2017-06-24T00:19:07.935Z,20.97
2017-06-24T00:19:48.817Z,20.99
2017-06-24T00:20:29.703Z,20.88
2017-06-24T00:21:10.615Z,20.92
2017-06-24T00:21:51.483Z,20.93
2017-06-24T00:22:32.355Z,20.72
2017-06-24T00:23:13.258Z,20.75
2017-06-24T00:23:54.140Z,20.77
2017-06-24T00:26:08.729Z,20.62
2017-06-24T00:26:49.642Z,20.7
2017-06-24T00:27:30.520Z,20.77
2017-06-24T00:28:11.411Z,20.63
2017-06-24T00:28:52.300Z,20.19
2017-06-24T00:31:07.031Z,20.25
2017-06-24T00:31:47.924Z,20.09
2017-06-24T00:32:28.820Z,20.1
2017-06-24T00:33:09.696Z,20.24
2017-06-24T00:33:51.473Z,20.32
2017-06-24T00:34:32.356Z,20.32
2017-06-24T00:35:13.247Z,20.51
2017-06-24T00:35:54.162Z,20.65
2017-06-24T00:36:35.048Z,20.58
2017-06-24T00:37:15.940Z,20.47
2017-06-24T00:37:56.817Z,20.52
2017-06-24T00:38:37.723Z,20.52
2017-06-24T00:39:18.638Z,20.47
2017-06-24T00:41:14.231Z,20.24
2017-06-24T00:41:55.123Z,20.04
2017-06-24T00:42:36.004Z,20.26
2017-06-24T00:43:18.711Z,20.31
2017-06-24T00:43:59.606Z,20.03
2017-06-24T00:47:52.630Z,20.56
2017-06-24T00:48:33.524Z,20.55
2017-06-24T00:49:14.398Z,20.59
2017-06-24T00:49:55.283Z,20.67
2017-06-24T00:50:36.171Z,20.67
2017-06-24T00:51:17.047Z,20.59
2017-06-24T00:51:57.927Z,20.69
2017-06-24T00:54:14.919Z,20.43
2017-06-24T00:54:55.818Z,20.5
2017-06-24T00:55:36.669Z,20.51
2017-06-24T00:56:17.568Z,20.31
2017-06-24T00:56:58.453Z,20.21
2017-06-24T00:57:39.323Z,20.18
2017-06-24T00:58:20.213Z,20.24
2017-06-24T01:01:11.956Z,20.25
2017-06-24T01:01:53.506Z,20.18
2017-06-24T01:02:34.397Z,20.26
2017-06-24T01:03:15.277Z,20.44
2017-06-24T01:03:56.179Z,20.4
2017-06-24T01:06:12.881Z,20.5
2017-06-24T01:06:53.778Z,20.43
2017-06-24T01:09:07.571Z,20.09
2017-06-24T01:09:48.466Z,20.1
2017-06-24T01:10:29.363Z,20.03
2017-06-24T01:11:10.271Z,19.99
2017-06-24T01:11:51.166Z,20.07
2017-06-24T01:14:06.107Z,20.07
2017-06-24T01:14:46.826Z,20.11
2017-06-24T01:15:27.722Z,20.06
2017-06-24T01:16:08.607Z,20.04
2017-06-24T01:16:49.490Z,20.03
2017-06-24T01:17:30.372Z,20.16
2017-06-24T01:18:11.261Z,20.21
2017-06-24T01:18:52.149Z,20.37
2017-06-24T01:22:41.725Z,20.07
2017-06-24T01:23:22.608Z,20.29
2017-06-24T01:24:03.523Z,20.29
2017-06-24T01:24:44.404Z,20.24
2017-06-24T01:25:25.288Z,20.24
2017-06-24T01:26:06.168Z,20.06
2017-06-24T01:26:47.088Z,20.02
2017-06-24T01:27:27.972Z,19.86
2017-06-24T01:28:08.870Z,19.82
2017-06-24T01:28:50.524Z,19.77
2017-06-24T01:29:31.434Z,19.94
2017-06-24T01:30:12.319Z,19.96
2017-06-24T01:30:53.206Z,19.99
2017-06-24T01:31:34.111Z,20.09
2017-06-24T01:32:14.994Z,20.06
2017-06-24T01:32:57.558Z,19.96
2017-06-24T01:36:13.660Z,20
2017-06-24T01:36:54.549Z,20.04
2017-06-24T01:42:47.521Z,20.31
2017-06-24T01:43:28.397Z,20.25
2017-06-24T01:45:05.347Z,20.25
2017-06-24T01:45:46.213Z,20.26
2017-06-24T01:46:27.123Z,20.25
2017-06-24T01:47:08.023Z,20.34
2017-06-24T01:47:48.888Z,20.29
2017-06-24T01:48:29.798Z,20.32
2017-06-24T01:49:10.694Z,20.31
2017-06-24T01:49:51.578Z,20.32
2017-06-24T01:52:05.341Z,20.34
2017-06-24T01:52:46.226Z,20.43
2017-06-24T01:53:27.138Z,20.32
2017-06-24T01:54:08.101Z,20.41
2017-06-24T01:54:48.996Z,20.4
2017-06-24T01:55:29.903Z,20.43
2017-06-24T01:56:10.760Z,20.4
2017-06-24T01:56:51.646Z,20.39
2017-06-24T02:00:08.627Z,20.19
2017-06-24T02:02:51.408Z,20.28
2017-06-24T02:06:08.782Z,20.31
2017-06-24T02:06:49.671Z,20.28
2017-06-24T02:07:30.569Z,20.29
2017-06-24T02:10:31.016Z,20.36
2017-06-24T02:11:11.990Z,20.36
2017-06-24T02:12:35.261Z,20.43
2017-06-24T02:13:16.151Z,20.43
2017-06-24T02:15:06.468Z,20.51
2017-06-24T02:15:47.349Z,20.39
2017-06-24T02:16:28.261Z,20.31
2017-06-24T02:17:09.146Z,20.29
2017-06-24T02:17:50.078Z,20.34
2017-06-24T02:18:30.974Z,20.34
2017-06-24T02:19:11.870Z,20.34
2017-06-24T02:19:52.813Z,20.34
2017-06-24T02:21:46.778Z,20.43
2017-06-24T02:24:27.861Z,20.4
2017-06-24T02:25:08.768Z,20.48
2017-06-24T02:28:21.025Z,20.16
2017-06-24T02:29:01.916Z,20.14
2017-06-24T02:29:43.577Z,20.19
2017-06-24T02:30:24.482Z,20.31
2017-06-24T02:31:05.382Z,20.31
2017-06-24T02:31:46.265Z,20.32
2017-06-24T02:32:27.159Z,20.31
2017-06-24T02:33:09.871Z,20.41
2017-06-24T02:33:50.775Z,20.39
2017-06-24T02:34:31.668Z,20.47
2017-06-24T02:35:12.571Z,20.47
2017-06-24T02:35:53.409Z,20.52
2017-06-24T02:37:29.125Z,20.32
2017-06-24T02:38:09.992Z,20.28
2017-06-24T02:38:50.882Z,20.34
2017-06-24T02:41:07.176Z,20.4
2017-06-24T02:41:48.066Z,20.41
2017-06-24T02:42:29.116Z,20.51
2017-06-24T02:43:10.022Z,20.4
2017-06-24T02:43:50.940Z,20.51
2017-06-24T02:46:08.076Z,20.5
2017-06-24T02:46:49.743Z,20.39
2017-06-24T02:47:30.635Z,20.39
2017-06-24T02:48:11.518Z,20.44
2017-06-24T02:48:52.397Z,20.19
2017-06-24T02:49:35.291Z,20.24
2017-06-24T02:50:16.176Z,20.31
2017-06-24T02:57:05.826Z,20.22
2017-06-24T03:00:03.029Z,20.31
2017-06-24T03:00:43.909Z,20.11
2017-06-24T03:01:24.808Z,20.19
2017-06-24T03:02:05.674Z,20.09
2017-06-24T03:02:46.562Z,20.13
2017-06-24T03:03:27.457Z,20.07
2017-06-24T03:04:08.347Z,20.07
2017-06-24T03:04:49.299Z,20.1
2017-06-24T03:05:30.180Z,20.04
2017-06-24T03:06:11.063Z,20.03
2017-06-24T03:06:52.895Z,20.14
2017-06-24T03:07:33.772Z,20.09
2017-06-24T03:08:14.668Z,20.07
2017-06-24T03:08:55.545Z,20.09
2017-06-24T03:09:36.431Z,20.07
2017-06-24T03:10:17.336Z,20.11
2017-06-24T03:12:05.587Z,20.11
2017-06-24T03:12:46.454Z,20.09
2017-06-24T03:13:27.416Z,20.11
2017-06-24T03:14:08.308Z,20.09
2017-06-24T03:14:49.213Z,20.06
2017-06-24T03:15:30.107Z,20.07
2017-06-24T03:16:10.991Z,20.06
2017-06-24T03:16:51.880Z,20.03
2017-06-24T03:19:05.668Z,20.03
2017-06-24T03:21:03.199Z,19.99
2017-06-24T03:21:44.082Z,19.85
2017-06-24T03:22:24.956Z,19.62
2017-06-24T03:23:05.843Z,19.7
2017-06-24T03:23:46.732Z,19.7
2017-06-24T03:24:27.609Z,19.84
2017-06-24T03:25:08.499Z,19.82
2017-06-24T03:25:50.912Z,19.96
2017-06-24T03:26:31.793Z,19.96
2017-06-24T03:27:12.681Z,20.06
2017-06-24T03:27:53.551Z,19.99
2017-06-24T03:33:19.331Z,20.21
2017-06-24T03:34:00.249Z,20.09
2017-06-24T03:34:41.320Z,20.11
2017-06-24T03:35:22.152Z,19.99
2017-06-24T03:36:03.042Z,19.81
2017-06-24T03:36:43.940Z,19.92
2017-06-24T03:37:24.891Z,19.88
2017-06-24T03:38:05.728Z,19.76
2017-06-24T03:38:46.649Z,19.71
2017-06-24T03:39:27.561Z,19.34
2017-06-24T03:40:08.471Z,19.44
2017-06-24T03:40:49.317Z,19.63
2017-06-24T03:43:05.835Z,19.7
2017-06-24T03:43:46.715Z,19.74
2017-06-24T03:47:00.503Z,19.67
2017-06-24T03:47:41.408Z,19.62
2017-06-24T03:48:22.465Z,19.54
2017-06-24T03:49:40.338Z,19.45
2017-06-24T03:50:21.425Z,19.34
2017-06-24T03:51:02.313Z,19.36
2017-06-24T03:51:43.206Z,19.33
2017-06-24T03:52:24.126Z,19.26
2017-06-24T03:53:05.098Z,19.33
2017-06-24T03:53:45.990Z,19.27
2017-06-24T03:54:26.900Z,19.31
2017-06-24T03:55:07.808Z,19.29
2017-06-24T03:55:48.711Z,19.33
2017-06-24T03:58:59.888Z,19.52
2017-06-24T03:59:40.768Z,19.54
2017-06-24T04:00:21.669Z,19.36
2017-06-24T04:01:02.578Z,19.45
2017-06-24T04:01:43.492Z,19.4
2017-06-24T04:02:24.373Z,19.22
2017-06-24T04:03:05.254Z,19.24
2017-06-24T04:03:46.147Z,19.26
2017-06-24T04:04:27.023Z,19.31
2017-06-24T04:05:07.908Z,19.27
2017-06-24T04:05:48.784Z,19.36
2017-06-24T04:06:29.700Z,19.44
2017-06-24T04:07:10.585Z,19.49
2017-06-24T04:07:51.470Z,19.4
2017-06-24T04:10:05.288Z,19.29
2017-06-24T04:10:46.165Z,19.19
2017-06-24T04:11:27.051Z,19.33
2017-06-24T04:12:07.934Z,19.27
2017-06-24T04:12:48.816Z,19.37
2017-06-24T04:15:08.633Z,19.45
2017-06-24T04:15:49.526Z,19.37
2017-06-24T04:16:30.408Z,19.4
2017-06-24T04:17:11.293Z,19.31
2017-06-24T04:17:52.195Z,19.27
2017-06-24T04:18:37.384Z,19.22
2017-06-24T04:19:18.287Z,19.27
2017-06-24T04:22:46.326Z,19.54
2017-06-24T04:23:27.389Z,19.54
2017-06-24T04:24:09.039Z,19.51
2017-06-24T04:24:49.918Z,19.45
2017-06-24T04:25:30.801Z,19.26
2017-06-24T04:26:11.751Z,19.15
2017-06-24T04:26:52.634Z,19.02
2017-06-24T04:27:33.529Z,19.08
2017-06-24T04:28:14.397Z,19.22
2017-06-24T04:28:55.331Z,19.21
2017-06-24T04:29:36.267Z,19.3
2017-06-24T04:30:17.147Z,19.31
2017-06-24T04:31:00.805Z,19.21
2017-06-24T04:31:41.688Z,19.33
2017-06-24T04:32:24.087Z,19.21
2017-06-24T04:33:04.976Z,19.22
2017-06-24T04:33:45.861Z,19.29
2017-06-24T04:34:26.764Z,19.08
2017-06-24T04:35:07.651Z,19.02
2017-06-24T04:35:48.531Z,19.09
2017-06-24T04:36:29.414Z,19.07
2017-06-24T04:37:10.302Z,19.14
2017-06-24T04:37:51.185Z,19.11
2017-06-24T04:38:32.090Z,19.3
2017-06-24T04:39:13.008Z,19.37
2017-06-24T04:39:54.019Z,19.29
2017-06-24T04:42:07.918Z,19.09
2017-06-24T04:42:48.983Z,18.93
2017-06-24T04:45:03.033Z,19.21
2017-06-24T04:45:44.412Z,19.33
2017-06-24T04:46:25.325Z,19.24
2017-06-24T04:47:06.184Z,19.27
2017-06-24T04:47:47.075Z,19.26
2017-06-24T04:48:27.963Z,19.21
2017-06-24T04:49:08.866Z,19.09
2017-06-24T04:49:49.755Z,19.11
2017-06-24T04:50:30.656Z,19.29
2017-06-24T04:51:11.535Z,19.33
2017-06-24T04:51:52.431Z,19.12
2017-06-24T04:52:33.313Z,18.98
2017-06-24T04:53:14.195Z,18.98
2017-06-24T04:53:55.077Z,18.89
2017-06-24T04:54:35.993Z,19.14
2017-06-24T04:55:16.836Z,19.07
2017-06-24T04:55:57.778Z,19.11
2017-06-24T04:56:38.667Z,19.08
2017-06-24T04:57:19.543Z,18.8
2017-06-24T04:58:00.429Z,18.8
2017-06-24T04:58:41.337Z,18.81
2017-06-24T04:59:22.210Z,18.86
2017-06-24T05:00:03.088Z,18.75
2017-06-24T05:00:43.990Z,18.84
2017-06-24T05:01:24.872Z,18.8
2017-06-24T05:02:05.757Z,18.8
2017-06-24T05:02:46.642Z,18.7
2017-06-24T05:03:27.547Z,18.84
2017-06-24T05:04:08.431Z,19
2017-06-24T05:04:49.325Z,19.07
2017-06-24T05:05:30.205Z,19.07
2017-06-24T05:06:11.095Z,19.14
2017-06-24T05:06:51.971Z,19.27
2017-06-24T05:07:32.900Z,19.26
2017-06-24T05:08:13.783Z,19.24
2017-06-24T05:08:54.700Z,19.26
2017-06-24T05:09:35.596Z,19.4
2017-06-24T05:10:16.488Z,19.49
2017-06-24T05:10:57.377Z,19.19
2017-06-24T05:11:38.265Z,19.29
2017-06-24T05:12:19.157Z,19.21
2017-06-24T05:13:00.052Z,19.24
2017-06-24T05:13:40.926Z,19.33
2017-06-24T05:14:21.823Z,19.4
2017-06-24T05:15:02.689Z,19.45
2017-06-24T05:15:43.610Z,19.54
2017-06-24T05:16:24.503Z,19.45
2017-06-24T05:17:05.401Z,19.47
2017-06-24T05:17:46.271Z,19.3
2017-06-24T05:18:27.154Z,19.21
2017-06-24T05:19:08.076Z,19.34
2017-06-24T05:19:48.961Z,19.45
2017-06-24T05:20:29.843Z,19.54
2017-06-24T05:21:10.733Z,19.36
2017-06-24T05:21:51.621Z,19.22
2017-06-24T05:22:32.512Z,19.49
2017-06-24T05:23:13.399Z,19.4
2017-06-24T05:23:54.297Z,19.24
2017-06-24T05:24:35.196Z,19.26
2017-06-24T05:25:16.080Z,19.21
2017-06-24T05:25:56.972Z,19.11
2017-06-24T05:26:37.864Z,19.26
2017-06-24T05:27:18.754Z,19.27
2017-06-24T05:27:59.650Z,19.4
2017-06-24T05:28:40.544Z,19.34
2017-06-24T05:29:21.442Z,19.3
2017-06-24T05:30:02.332Z,19.34
2017-06-24T05:30:43.220Z,19.4
2017-06-24T05:31:24.113Z,19.45
2017-06-24T05:32:04.999Z,19.4
2017-06-24T05:32:45.901Z,19.51
2017-06-24T05:33:26.794Z,19.64
2017-06-24T05:34:07.684Z,19.66
2017-06-24T05:34:48.577Z,19.71
2017-06-24T05:35:29.473Z,19.63
2017-06-24T05:36:10.373Z,19.64
2017-06-24T05:36:51.258Z,19.7
2017-06-24T05:37:32.182Z,19.59
2017-06-24T05:38:13.054Z,19.4
2017-06-24T05:38:53.940Z,19.31
2017-06-24T05:39:34.845Z,19.37
2017-06-24T05:40:15.726Z,19.22
2017-06-24T05:40:56.614Z,19.29
2017-06-24T05:41:37.512Z,19.45
2017-06-24T05:42:18.400Z,19.64
2017-06-24T05:42:59.301Z,19.73
2017-06-24T05:43:40.174Z,19.73
2017-06-24T05:44:21.055Z,19.74
2017-06-24T05:45:01.941Z,19.91
2017-06-24T05:45:42.832Z,19.49
2017-06-24T05:46:23.726Z,19.44
2017-06-24T05:47:04.612Z,19.64
2017-06-24T05:47:45.502Z,19.67
2017-06-24T05:48:26.397Z,19.73
2017-06-24T05:49:07.261Z,19.7
2017-06-24T05:49:48.143Z,19.69
2017-06-24T05:50:29.049Z,19.82
2017-06-24T05:51:09.923Z,19.79
2017-06-24T05:51:50.818Z,19.88
2017-06-24T05:52:31.741Z,19.89
2017-06-24T05:53:12.636Z,19.7
2017-06-24T05:53:53.555Z,19.39
2017-06-24T05:54:34.455Z,19.51
2017-06-24T05:55:15.342Z,19.66
2017-06-24T05:55:56.231Z,19.69
2017-06-24T05:56:37.128Z,19.84
2017-06-24T05:57:18.022Z,19.79
2017-06-24T05:57:58.915Z,19.92
2017-06-24T05:58:39.804Z,19.85
2017-06-24T05:59:20.743Z,19.82
2017-06-24T06:00:01.635Z,19.92
2017-06-24T06:00:42.538Z,19.96
2017-06-24T06:01:23.433Z,19.94
2017-06-24T06:02:04.320Z,20.02
2017-06-24T06:02:45.208Z,19.99
2017-06-24T06:03:26.102Z,20.04
2017-06-24T06:04:06.977Z,20.06
2017-06-24T06:04:47.902Z,20.11
2017-06-24T06:07:04.685Z,19.89
2017-06-24T06:07:45.587Z,19.84
2017-06-24T06:09:23.623Z,19.56
2017-06-24T06:10:04.520Z,19.79
2017-06-24T06:10:45.470Z,19.82
2017-06-24T06:11:26.379Z,19.91
2017-06-24T06:12:07.252Z,19.84
2017-06-24T06:12:48.169Z,19.94
2017-06-24T06:13:29.039Z,19.95
2017-06-24T06:14:09.925Z,20.03
2017-06-24T06:14:50.803Z,19.84
2017-06-24T06:15:31.701Z,19.63
2017-06-24T06:16:12.582Z,19.55
2017-06-24T06:16:53.483Z,19.73
2017-06-24T06:17:34.369Z,19.86
2017-06-24T06:18:15.291Z,20.02
2017-06-24T06:18:56.175Z,20.03
2017-06-24T06:19:37.056Z,20.11
2017-06-24T06:20:17.947Z,20.21
2017-06-24T06:20:58.831Z,20.18
2017-06-24T06:21:39.732Z,20.36
2017-06-24T06:22:22.300Z,20.29
2017-06-24T06:23:03.189Z,20.21
2017-06-24T06:23:44.072Z,20.34
2017-06-24T06:24:24.977Z,20.24
2017-06-24T06:25:53.085Z,20.24
2017-06-24T06:26:33.983Z,20.16
2017-06-24T06:27:14.869Z,20.21
2017-06-24T06:27:55.753Z,20.21
2017-06-24T06:28:36.640Z,20.26
2017-06-24T06:29:17.579Z,20.37
2017-06-24T06:29:58.476Z,20.41
2017-06-24T06:30:39.386Z,20.48
2017-06-24T06:31:20.273Z,20.52
2017-06-24T06:32:01.163Z,20.44
2017-06-24T06:32:42.103Z,20.21
2017-06-24T06:33:22.945Z,20.25
2017-06-24T06:34:03.838Z,20.31
2017-06-24T06:34:44.734Z,20.43
2017-06-24T06:35:25.614Z,20.4
2017-06-24T06:36:06.504Z,20.51
2017-06-24T06:36:47.389Z,20.59
2017-06-24T06:37:28.295Z,20.55
2017-06-24T06:38:09.189Z,20.59
2017-06-24T06:38:50.087Z,20.41
2017-06-24T06:39:30.975Z,20.37
2017-06-24T06:40:11.864Z,20.28
2017-06-24T06:40:52.763Z,20.4
2017-06-24T06:41:33.647Z,20.5
2017-06-24T06:42:14.537Z,20.47
2017-06-24T06:42:55.502Z,20.31
2017-06-24T06:43:36.396Z,20.47
2017-06-24T06:44:17.288Z,20.47
2017-06-24T06:44:58.179Z,20.55
2017-06-24T06:45:39.061Z,20.47
2017-06-24T06:46:20.304Z,20.47
2017-06-24T06:47:01.195Z,20.26
2017-06-24T06:47:42.083Z,20.03
2017-06-24T06:48:59.962Z,20.1
2017-06-24T06:49:40.856Z,20.34
2017-06-24T06:50:21.784Z,20.18
2017-06-24T06:52:00.339Z,20.1
2017-06-24T06:52:41.201Z,20.21
2017-06-24T06:54:09.359Z,19.84
2017-06-24T06:54:50.224Z,19.92
2017-06-24T06:55:31.143Z,20.11
2017-06-24T06:56:12.053Z,20.22
2017-06-24T06:56:52.938Z,20.21
2017-06-24T06:57:33.859Z,20.32
2017-06-24T06:58:14.742Z,20.32
2017-06-24T06:58:55.613Z,20.28
2017-06-24T06:59:36.482Z,20.1
2017-06-24T07:00:17.333Z,20.21
2017-06-24T07:00:58.202Z,20.37
2017-06-24T07:01:39.088Z,20.19
2017-06-24T07:02:19.995Z,20.14
2017-06-24T07:03:00.865Z,20.29
2017-06-24T07:03:41.728Z,20.31
2017-06-24T07:04:22.603Z,20.21
2017-06-24T07:05:03.446Z,20.36
2017-06-24T07:05:44.359Z,20.51
2017-06-24T07:06:25.229Z,20.43
2017-06-24T07:07:06.098Z,20.55
2017-06-24T07:07:47.015Z,20.52
2017-06-24T07:09:04.886Z,20.5
2017-06-24T07:09:45.853Z,20.29
2017-06-24T07:10:26.712Z,20.51
2017-06-24T07:11:07.617Z,20.58
2017-06-24T07:11:48.538Z,20.65
2017-06-24T07:12:29.395Z,20.58
2017-06-24T07:13:10.268Z,20.6
2017-06-24T07:13:51.135Z,20.59
2017-06-24T07:14:31.999Z,20.62
2017-06-24T07:15:12.875Z,20.59
2017-06-24T07:15:53.760Z,20.51
2017-06-24T07:16:34.628Z,20.59
2017-06-24T07:17:15.504Z,20.58
2017-06-24T07:17:56.368Z,20.59
2017-06-24T07:18:37.233Z,20.59
2017-06-24T07:19:18.091Z,20.6
2017-06-24T07:19:58.967Z,20.63
2017-06-24T07:20:39.840Z,20.66
2017-06-24T07:21:20.738Z,20.75
2017-06-24T07:22:01.589Z,20.85
2017-06-24T07:22:42.477Z,20.85
2017-06-24T07:23:23.349Z,20.84
2017-06-24T07:24:04.268Z,20.7
2017-06-24T07:24:45.142Z,20.52
2017-06-24T07:25:26.050Z,20.59
2017-06-24T07:26:06.951Z,20.44
2017-06-24T07:26:47.814Z,20.51
2017-06-24T07:27:28.696Z,20.58
2017-06-24T07:28:09.564Z,20.66
2017-06-24T07:28:50.436Z,20.77
2017-06-24T07:29:31.305Z,20.72
2017-06-24T07:30:12.192Z,20.7
2017-06-24T07:30:53.052Z,20.84
2017-06-24T07:31:33.951Z,20.88
2017-06-24T07:32:14.839Z,20.92
2017-06-24T07:32:55.726Z,20.51
2017-06-24T07:33:36.603Z,20.52
2017-06-24T07:34:17.460Z,20.44
2017-06-24T07:34:58.405Z,20.32
2017-06-24T07:35:39.259Z,20.43
2017-06-24T07:36:20.135Z,20.52
2017-06-24T07:37:00.996Z,20.63
2017-06-24T07:37:41.848Z,20.72
2017-06-24T07:38:22.713Z,20.58
2017-06-24T07:39:03.579Z,20.6
2017-06-24T07:39:44.458Z,20.74
2017-06-24T07:40:25.337Z,20.75
2017-06-24T07:41:06.227Z,20.75
2017-06-24T07:41:47.104Z,20.72
2017-06-24T07:42:27.969Z,20.77
2017-06-24T07:43:08.848Z,20.87
2017-06-24T07:43:49.764Z,20.87
2017-06-24T07:44:30.614Z,20.84
2017-06-24T07:45:11.494Z,20.87
2017-06-24T07:45:52.396Z,20.75
2017-06-24T07:46:33.267Z,20.58
2017-06-24T07:47:14.149Z,20.47
2017-06-24T07:47:55.025Z,20.63
2017-06-24T07:49:23.166Z,20.37
2017-06-24T07:50:04.073Z,20.29
2017-06-24T07:50:44.968Z,20.48
2017-06-24T07:51:25.844Z,20.62
2017-06-24T07:52:06.722Z,20.66
2017-06-24T07:52:47.592Z,20.75
2017-06-24T07:53:28.509Z,20.72
2017-06-24T07:54:09.382Z,20.7
2017-06-24T07:54:50.246Z,20.59
2017-06-24T07:55:31.119Z,20.72
2017-06-24T07:57:24.768Z,20.74
2017-06-24T07:58:05.696Z,20.75
2017-06-24T07:58:46.565Z,20.87
2017-06-24T07:59:27.450Z,20.97
2017-06-24T08:00:08.313Z,21.05
2017-06-24T08:00:49.191Z,21.09
2017-06-24T08:01:30.087Z,21
2017-06-24T08:02:10.973Z,20.99
2017-06-24T08:02:51.854Z,21.02
2017-06-24T08:03:32.783Z,20.99
2017-06-24T08:04:13.656Z,21.09
2017-06-24T08:04:54.521Z,21.18
2017-06-24T08:05:35.388Z,21.14
2017-06-24T08:06:16.280Z,21.17
2017-06-24T08:06:57.172Z,21.11
2017-06-24T08:07:38.044Z,20.97
2017-06-24T08:08:18.903Z,20.85
2017-06-24T08:08:59.788Z,20.78
2017-06-24T08:09:40.635Z,20.74
2017-06-24T08:10:21.514Z,20.51
2017-06-24T08:11:02.397Z,20.58
2017-06-24T08:11:43.287Z,20.7
2017-06-24T08:12:24.159Z,20.81
2017-06-24T08:13:05.029Z,20.9
2017-06-24T08:13:45.933Z,20.96
2017-06-24T08:14:26.813Z,21.02
2017-06-24T08:15:07.679Z,21.06
2017-06-24T08:15:48.550Z,21.11
2017-06-24T08:16:29.412Z,20.85
2017-06-24T08:17:10.271Z,20.74
2017-06-24T08:17:51.145Z,20.92
2017-06-24T08:18:32.041Z,21.05
2017-06-24T08:19:12.938Z,21.09
2017-06-24T08:19:53.824Z,21.12
2017-06-24T08:20:34.714Z,21.2
2017-06-24T08:21:15.610Z,21.29
2017-06-24T08:21:56.488Z,21.27
2017-06-24T08:22:37.358Z,21.37
2017-06-24T08:23:18.246Z,21.29
2017-06-24T08:23:59.164Z,21.27
2017-06-24T08:25:28.320Z,21.27
2017-06-24T08:26:46.692Z,21.17
2017-06-24T08:27:27.549Z,20.97
2017-06-24T08:28:08.452Z,20.96
2017-06-24T08:28:49.347Z,20.82
2017-06-24T08:29:30.224Z,20.7
2017-06-24T08:30:11.133Z,20.62
2017-06-24T08:30:52.005Z,20.5
2017-06-24T08:31:32.872Z,20.59
2017-06-24T08:32:13.743Z,20.69
2017-06-24T08:32:54.626Z,20.66
2017-06-24T08:33:35.473Z,20.52
2017-06-24T08:34:16.334Z,20.72
2017-06-24T08:34:57.212Z,20.9
2017-06-24T08:35:38.088Z,21.02
2017-06-24T08:36:18.992Z,21.02
2017-06-24T08:36:59.857Z,21.02
2017-06-24T08:37:40.733Z,21.2
2017-06-24T08:38:21.612Z,21.21
2017-06-24T08:39:02.504Z,20.99
2017-06-24T08:39:43.372Z,20.85
2017-06-24T08:40:24.239Z,20.97
2017-06-24T08:41:05.129Z,20.97
2017-06-24T08:41:46.014Z,21.07
2017-06-24T08:42:26.903Z,21.12
2017-06-24T08:43:07.776Z,21.21
2017-06-24T08:43:48.649Z,21.2
2017-06-24T08:44:29.551Z,21.11
2017-06-24T08:45:10.440Z,21.12
2017-06-24T08:45:51.309Z,21.17
2017-06-24T08:46:32.174Z,21.02
2017-06-24T08:47:13.051Z,21.02
2017-06-24T08:47:53.928Z,20.77
2017-06-24T08:48:34.803Z,20.88
2017-06-24T08:49:15.682Z,21.05
2017-06-24T08:49:56.566Z,21.06
2017-06-24T08:50:37.428Z,21.24
2017-06-24T08:51:18.325Z,21.07
2017-06-24T08:51:59.196Z,21.05
2017-06-24T08:52:40.130Z,20.96
2017-06-24T08:53:21.017Z,20.95
2017-06-24T08:54:01.911Z,20.77
2017-06-24T08:54:42.774Z,20.8
2017-06-24T08:55:23.652Z,20.75
2017-06-24T08:56:04.535Z,20.9
2017-06-24T08:56:45.423Z,20.99
2017-06-24T08:57:26.326Z,21.06
2017-06-24T08:58:07.216Z,21.2
2017-06-24T08:58:48.090Z,21.12
2017-06-24T08:59:28.972Z,21.18
2017-06-24T09:00:09.856Z,21.36
2017-06-24T09:00:50.724Z,21.32
2017-06-24T09:01:31.594Z,21.29
2017-06-24T09:02:12.474Z,21.21
2017-06-24T09:02:53.360Z,21.4
2017-06-24T09:03:34.229Z,21.4
2017-06-24T09:04:15.100Z,21.45
2017-06-24T09:04:55.983Z,21.43
2017-06-24T09:05:36.845Z,21.61
2017-06-24T09:06:17.717Z,21.54
2017-06-24T09:06:58.608Z,21.61
2017-06-24T09:07:39.480Z,21.3
2017-06-24T09:08:20.355Z,21.43
2017-06-24T09:09:01.215Z,21.46
2017-06-24T09:09:42.095Z,21.45
2017-06-24T09:10:22.982Z,21.45
2017-06-24T09:11:03.859Z,21.48
2017-06-24T09:11:44.724Z,21.29
2017-06-24T09:12:25.611Z,21.25
2017-06-24T09:13:06.516Z,21.12
2017-06-24T09:13:47.414Z,20.74
2017-06-24T09:14:28.289Z,20.85
2017-06-24T09:15:09.162Z,21.14
2017-06-24T09:15:50.052Z,21.17
2017-06-24T09:16:30.944Z,21.12
2017-06-24T09:17:11.814Z,21.33
2017-06-24T09:17:52.717Z,21.45
2017-06-24T09:18:33.570Z,21.55
2017-06-24T09:19:14.450Z,21.89
2017-06-24T09:19:55.341Z,21.99
2017-06-24T09:20:36.233Z,22.22
2017-06-24T09:21:17.121Z,22
2017-06-24T09:21:58.009Z,22.2
2017-06-24T09:22:38.880Z,22.3
2017-06-24T09:23:19.770Z,22.43
2017-06-24T09:24:00.662Z,22.38
2017-06-24T09:24:41.539Z,21.96
2017-06-24T09:25:22.412Z,21.88
2017-06-24T09:26:03.284Z,21.99
2017-06-24T09:26:44.180Z,22.26
2017-06-24T09:27:25.054Z,22.2
2017-06-24T09:28:05.935Z,21.75
2017-06-24T09:28:46.808Z,21.5
2017-06-24T09:29:27.702Z,21.58
2017-06-24T09:30:08.596Z,21.88
2017-06-24T09:30:49.487Z,22.1
2017-06-24T09:31:30.380Z,22.26
2017-06-24T09:32:11.260Z,22.33
2017-06-24T09:32:52.140Z,22.33
2017-06-24T09:33:33.021Z,22.38
2017-06-24T09:34:18.428Z,22.62
2017-06-24T09:34:59.318Z,22.55
2017-06-24T09:35:40.199Z,22.38
2017-06-24T09:36:21.098Z,22.18
2017-06-24T09:37:01.967Z,22.14
2017-06-24T09:37:48.259Z,22.36
2017-06-24T09:38:29.152Z,22.25
2017-06-24T09:39:10.016Z,21.99
2017-06-24T09:39:50.904Z,22.25
2017-06-24T09:40:31.768Z,22.2
2017-06-24T09:41:12.648Z,21.83
2017-06-24T09:41:53.523Z,21.54
2017-06-24T09:42:34.395Z,21.66
2017-06-24T09:43:15.273Z,21.85
2017-06-24T09:43:56.165Z,21.77
2017-06-24T09:44:37.052Z,21.36
2017-06-24T09:45:17.925Z,21.64
2017-06-24T09:45:58.835Z,21.69
2017-06-24T09:46:39.722Z,21.62
2017-06-24T09:47:20.616Z,21.91
2017-06-24T09:48:01.523Z,21.85
2017-06-24T09:48:42.415Z,21.64
2017-06-24T09:49:23.255Z,21.95
2017-06-24T09:50:04.131Z,22.18
2017-06-24T09:50:45.005Z,21.96
2017-06-24T09:51:25.875Z,21.99
2017-06-24T09:52:06.763Z,21.4
2017-06-24T09:52:47.646Z,21.79
2017-06-24T09:53:28.523Z,21.7
2017-06-24T09:54:09.401Z,21.98
2017-06-24T09:54:50.287Z,21.85
2017-06-24T09:55:31.186Z,21.91
2017-06-24T09:56:12.075Z,22.2
2017-06-24T09:56:52.965Z,22.29
2017-06-24T09:57:33.859Z,22.39
2017-06-24T09:58:14.729Z,22.38
2017-06-24T09:58:55.608Z,21.77
2017-06-24T09:59:36.492Z,21.66
2017-06-24T10:00:17.379Z,21.99
2017-06-24T10:00:58.278Z,22.23
2017-06-24T10:01:39.145Z,22.28
2017-06-24T10:02:20.003Z,21.95
2017-06-24T10:03:00.877Z,22.02
2017-06-24T10:03:41.772Z,21.95
2017-06-24T10:04:22.660Z,21.91
2017-06-24T10:05:03.553Z,22.11
2017-06-24T10:05:44.446Z,22.23
2017-06-24T10:06:25.350Z,22.32
2017-06-24T10:07:06.230Z,22.32
2017-06-24T10:07:47.106Z,22.28
2017-06-24T10:08:27.982Z,22.13
2017-06-24T10:09:08.881Z,21.83
2017-06-24T10:09:49.765Z,21.83
2017-06-24T10:10:30.677Z,22.13
2017-06-24T10:11:11.556Z,22.3
2017-06-24T10:11:52.428Z,22.41
2017-06-24T10:12:33.300Z,22.53
2017-06-24T10:13:14.202Z,22.57
2017-06-24T10:13:55.090Z,22.5
2017-06-24T10:14:35.982Z,22.5
2017-06-24T10:15:16.873Z,22.33
2017-06-24T10:15:57.767Z,22.15
2017-06-24T10:16:38.658Z,22.28
2017-06-24T10:17:19.546Z,22.36
2017-06-24T10:18:00.433Z,22.25
2017-06-24T10:18:41.323Z,22.29
2017-06-24T10:19:22.210Z,22.43
2017-06-24T10:20:03.104Z,22.48
2017-06-24T10:20:43.978Z,22.59
2017-06-24T10:21:24.862Z,22.57
2017-06-24T10:22:05.754Z,22.68
2017-06-24T10:22:46.633Z,22.69
2017-06-24T10:23:27.505Z,22.36
2017-06-24T10:24:08.410Z,22.39
2017-06-24T10:24:49.309Z,22.47
2017-06-24T10:25:30.196Z,22.44
2017-06-24T10:26:11.066Z,22.54
2017-06-24T10:26:51.992Z,22.35